Flight Track Log - Related Links

Times and Time Zones

All times are in EDT time to prevent confusion due to time zone crossing. See the SWA1044 flight status page for this flight to view local times or setup timezone preferences in your user account.

Time Position Orientation Groundspeed Altitude Reporting Facility
EDT Latitude Longitude Course Direction KTS MPH feet Rate Location/Type
Sat 03:09:27 PM 27.9333 -82.5500 211° Southwest 195 224 1,600  Level Tampa TRACON
Sat 03:10:27 PM 27.8833 -82.5833 211° Southwest 236 272 3,800 2,350 Climbing Tampa TRACON
Sat 03:11:27 PM 27.9167 -82.6333 307° West 259 298 6,300 2,125 Climbing Tampa TRACON
Sat 03:13:39 PM 28.0767 -82.6244 North 284 327 10,600 2,031 Climbing Jacksonville Center
Sat 03:14:39 PM 28.1747 -82.6194 North 318 366 12,800 2,400 Climbing Jacksonville Center
Sat 03:15:39 PM 28.2747 -82.6122 North 340 391 15,400 2,200 Climbing Jacksonville Center
Sat 03:16:39 PM 28.3769 -82.6072 North 358 412 17,200 1,800 Climbing Jacksonville Center
Sat 03:17:39 PM 28.4856 -82.5997 North 372 428 19,000 1,800 Climbing Jacksonville Center
Sat 03:18:39 PM 28.5961 -82.5947 North 383 441 20,800 1,800 Climbing Jacksonville Center
Sat 03:19:39 PM 28.7172 -82.5944 360° North 388 447 22,600 1,650 Climbing Jacksonville Center
Sat 03:20:39 PM 28.8300 -82.6106 353° North 388 447 24,100 1,350 Climbing Jacksonville Center
Sat 03:21:39 PM 28.9469 -82.6244 354° North 401 461 25,300 1,150 Climbing Jacksonville Center
Sat 03:22:39 PM 29.0639 -82.6431 352° North 414 476 26,400 1,150 Climbing Jacksonville Center
Sat 03:23:39 PM 29.1828 -82.6594 353° North 419 482 27,600 1,450 Climbing Jacksonville Center
Sat 03:24:39 PM 29.3019 -82.6758 353° North 425 489 29,300 1,600 Climbing Jacksonville Center
Sat 03:25:39 PM 29.4167 -82.6922 353° North 425 489 30,800 1,300 Climbing Jacksonville Center
Sat 03:26:39 PM 29.5231 -82.6969 358° North 420 483 31,900 1,100 Climbing Jacksonville Center
Sat 03:27:39 PM 29.6400 -82.6967 360° North 420 483 33,000 1,050 Climbing Jacksonville Center
Sat 03:28:39 PM 29.7569 -82.6939 North 415 478 34,000 1,000 Climbing Jacksonville Center
Sat 03:29:39 PM 29.8697 -82.6914 North 415 478 35,000 500 Climbing Jacksonville Center
Sat 03:30:39 PM 29.9867 -82.6911 360° North 415 478 35,000 -50 Level Jacksonville Center
Sat 03:31:39 PM 30.1056 -82.6861 North 420 483 34,900  Descending Jacksonville Center
Sat 03:32:39 PM 30.2206 -82.6858 360° North 420 483 35,000 50 Climbing Jacksonville Center
Sat 03:33:39 PM 30.3353 -82.6856 360° North 414 476 35,000  Level Jacksonville Center
Sat 03:34:39 PM 30.4481 -82.6831 North 414 476 35,000  Level Jacksonville Center
Sat 03:35:39 PM 30.5733 -82.6753 North 408 470 35,000  Level Jacksonville Center
Sat 03:36:39 PM 30.6628 -82.6125 31° Northeast 399 459 35,000  Level Jacksonville Center
Sat 03:37:39 PM 30.7692 -82.5614 22° Northeast 399 459 35,000  Level Jacksonville Center
Sat 03:38:39 PM 30.8778 -82.5053 24° Northeast 413 475 35,000  Level Jacksonville Center
Sat 03:39:39 PM 30.9861 -82.4539 22° Northeast 418 481 35,000  Level Jacksonville Center
Sat 03:40:39 PM 31.0967 -82.4025 22° Northeast 418 481 35,000  Level Jacksonville Center
Sat 03:41:39 PM 31.2050 -82.3486 23° Northeast 418 481 35,000  Level Jacksonville Center
Sat 03:42:39 PM 31.3133 -82.2992 21° North 413 475 35,000  Level Jacksonville Center
Sat 03:43:39 PM 31.4236 -82.2450 23° Northeast 413 475 35,000  Level Jacksonville Center
Sat 03:44:39 PM 31.5319 -82.1906 23° Northeast 418 481 35,000  Level Jacksonville Center
Sat 03:45:39 PM 31.6403 -82.1311 25° Northeast 418 481 35,000  Level Jacksonville Center
Sat 03:46:39 PM 31.7608 -82.0717 23° Northeast 423 487 35,000  Level Jacksonville Center
Sat 03:47:39 PM 31.8711 -82.0192 22° Northeast 423 487 35,000  Level Jacksonville Center
Sat 03:48:39 PM 31.9711 -81.9692 23° Northeast 423 487 35,000  Level Jacksonville Center
Sat 03:49:39 PM 32.0958 -81.9167 20° North 418 481 35,000  Level Jacksonville Center
Sat 03:50:39 PM 32.2061 -81.8639 22° Northeast 431 496 35,000  Level Jacksonville Center
Sat 03:51:39 PM 32.3103 -81.8158 21° North 431 496 35,000  Level Jacksonville Center
Sat 03:52:39 PM 32.4328 -81.7553 23° Northeast 431 496 35,000  Level Jacksonville Center
Sat 03:53:39 PM 32.5347 -81.7097 21° North 431 496 35,000  Level Jacksonville Center
Sat 03:54:39 PM 32.6572 -81.6489 23° Northeast 431 496 35,000  Level Jacksonville Center
Sat 03:55:39 PM 32.7694 -81.5931 23° Northeast 431 496 35,000 -50 Level Jacksonville Center
Sat 03:56:39 PM 32.8794 -81.5369 23° Northeast 431 496 34,900  Descending Jacksonville Center
Sat 03:57:39 PM 32.9936 -81.4858 21° North 431 496 35,000 50 Climbing Jacksonville Center
Sat 03:58:39 PM 33.1036 -81.4269 24° Northeast 431 496 35,000  Level Jacksonville Center
Sat 03:59:39 PM 33.2092 -81.3508 31° Northeast 431 496 35,000 -50 Level Jacksonville Center
Sat 04:00:39 PM 33.3083 -81.2672 35° Northeast 431 496 34,900  Descending Jacksonville Center
Sat 04:01:39 PM 33.4053 -81.1783 37° Northeast 431 496 35,000 50 Climbing Jacksonville Center
Sat 04:02:39 PM 33.5064 -81.0942 35° Northeast 436 502 35,000  Level Jacksonville Center
Sat 04:03:39 PM 33.6053 -81.0047 37° Northeast 436 502 35,000  Level Jacksonville Center
Sat 04:04:39 PM 33.6958 -80.9256 36° Northeast 436 502 35,000  Level Jacksonville Center
Sat 04:05:39 PM 33.7967 -80.8358 36° Northeast 442 509 35,000  Level Jacksonville Center
Sat 04:06:39 PM 33.9061 -80.7581 31° Northeast 447 514 35,000  Level Jacksonville Center
Sat 04:07:39 PM 34.0153 -80.6853 29° Northeast 447 514 35,000  Level Jacksonville Center
Sat 04:08:39 PM 34.1225 -80.6122 29° Northeast 441 507 35,000  Level Jacksonville Center
Sat 04:09:39 PM 34.2339 -80.5367 29° Northeast 441 507 35,000  Level Jacksonville Center
Sat 04:11:21 PM 34.4100 -80.4225 28° Northeast 426 490 35,000  Level Washington Center
Sat 04:12:19 PM 34.5172 -80.3506 29° Northeast 426 490 35,000  Level Washington Center
Sat 04:13:21 PM 34.6286 -80.2764 29° Northeast 444 511 35,000  Level Washington Center
Sat 04:14:21 PM 34.7281 -80.1936 34° Northeast 438 504 35,000  Level Washington Center
Sat 04:15:19 PM 34.8294 -80.1008 37° Northeast 448 516 35,000  Level Washington Center
Sat 04:16:19 PM 34.9308 -80.0153 35° Northeast 448 516 35,000  Level Washington Center
Sat 04:17:20 PM 35.0103 -79.8953 51° Northeast 442 509 35,000  Level Washington Center
Sat 04:18:21 PM 35.0858 -79.7700 54° Northeast 448 516 35,000  Level Washington Center
Sat 04:19:19 PM 35.1611 -79.6442 54° Northeast 454 522 35,000  Level Washington Center
Sat 04:20:19 PM 35.2381 -79.5208 53° Northeast 454 522 35,000  Level Washington Center
Sat 04:21:20 PM 35.3239 -79.3825 53° Northeast 454 522 35,000  Level Washington Center
Sat 04:22:20 PM 35.3944 -79.2661 53° Northeast 459 528 35,000  Level Washington Center
Sat 04:23:21 PM 35.4692 -79.1419 54° Northeast 459 528 35,000  Level Washington Center
Sat 04:24:19 PM 35.5436 -79.0203 53° Northeast 459 528 35,000  Level Washington Center
Sat 04:25:20 PM 35.6203 -78.8933 53° Northeast 459 528 35,000  Level Washington Center
Sat 04:26:21 PM 35.6967 -78.7686 53° Northeast 459 528 35,000  Level Washington Center
Sat 04:27:19 PM 35.7731 -78.6411 54° Northeast 459 528 35,000  Level Washington Center
Sat 04:28:19 PM 35.8450 -78.5106 56° Northeast 459 528 35,000  Level Washington Center
Sat 04:29:20 PM 35.9211 -78.3878 53° Northeast 459 528 35,000  Level Washington Center
Sat 04:30:21 PM 36.0111 -78.2831 43° Northeast 453 521 35,000  Level Washington Center
Sat 04:31:19 PM 36.1111 -78.1914 37° Northeast 435 501 35,000  Level Washington Center
Sat 04:32:20 PM 36.2111 -78.0994 37° Northeast 440 506 35,000  Level Washington Center
Sat 04:33:21 PM 36.3072 -78.0019 39° Northeast 440 506 35,000  Level Washington Center
Sat 04:34:19 PM 36.4031 -77.8992 41° Northeast 445 512 35,000  Level Washington Center
Sat 04:35:19 PM 36.4906 -77.7931 44° Northeast 440 506 35,000  Level Washington Center
Sat 04:36:20 PM 36.5822 -77.6869 43° Northeast 440 506 35,000  Level Washington Center
Sat 04:37:20 PM 36.6717 -77.5808 44° Northeast 440 506 35,000  Level Washington Center
Sat 04:38:19 PM 36.7675 -77.4614 45° Northeast 440 506 35,000  Level Washington Center
Sat 04:39:20 PM 36.8444 -77.3386 52° Northeast 435 501 35,000  Level Washington Center
Sat 04:40:21 PM 36.9233 -77.2183 51° Northeast 435 501 35,000  Level Washington Center
Sat 04:41:20 PM 36.9958 -77.0975 53° Northeast 440 506 35,000  Level Washington Center
Sat 04:42:20 PM 37.0722 -76.9742 52° Northeast 440 506 35,000  Level Washington Center
Sat 04:43:20 PM 37.1489 -76.8503 52° Northeast 440 506 35,000  Level Washington Center
Sat 04:44:21 PM 37.2250 -76.7264 52° Northeast 446 513 35,000  Level Washington Center
Sat 04:45:19 PM 37.3033 -76.6050 51° Northeast 446 513 35,000  Level Washington Center
Sat 04:46:20 PM 37.3711 -76.4961 52° Northeast 446 513 35,000  Level Washington Center
Sat 04:47:21 PM 37.4469 -76.3739 52° Northeast 441 507 35,000  Level Washington Center
Sat 04:48:19 PM 37.5289 -76.2700 45° Northeast 428 493 35,000  Level Washington Center
Sat 04:49:19 PM 37.6253 -76.1817 36° Northeast 420 483 35,000  Level Washington Center
Sat 04:50:20 PM 37.7217 -76.1011 33° Northeast 420 483 35,000  Level Washington Center
Sat 04:51:21 PM 37.8117 -76.0097 39° Northeast 415 478 35,000  Level Washington Center
Sat 04:52:19 PM 37.9058 -75.9233 36° Northeast 415 478 35,000  Level Washington Center
Sat 04:53:20 PM 37.9956 -75.8342 38° Northeast 415 478 35,000  Level Washington Center
Sat 04:54:21 PM 38.0917 -75.7475 35° Northeast 420 483 35,000  Level Washington Center
Sat 04:55:21 PM 38.1836 -75.6603 37° Northeast 414 476 35,000  Level Washington Center
Sat 04:56:19 PM 38.2753 -75.5733 37° Northeast 414 476 35,000  Level Washington Center
Sat 04:57:20 PM 38.3711 -75.4989 31° Northeast 414 476 35,000  Level Washington Center
Sat 04:58:20 PM 38.4753 -75.4539 19° North 394 453 35,000  Level Washington Center
Sat 04:59:21 PM 38.5794 -75.4111 18° North 394 453 35,000  Level Washington Center
Sat 05:00:21 PM 38.6836 -75.3683 18° North 388 447 35,000  Level Washington Center
Sat 05:01:19 PM 38.7900 -75.3253 18° North 388 447 35,000  Level Washington Center
Sat 05:02:20 PM 38.8942 -75.2850 17° North 388 447 35,000  Level Washington Center
Sat 05:03:20 PM 38.9878 -75.2017 35° Northeast 383 441 35,000  Level Washington Center
Sat 05:04:20 PM 39.0750 -75.1103 39° Northeast 395 455 35,000  Level Washington Center
Sat 05:05:21 PM 39.1642 -75.0161 39° Northeast 401 461 35,000  Level Washington Center
Sat 05:06:21 PM 39.2533 -74.9242 39° Northeast 407 468 35,000 -203 Level Washington Center
Sat 05:07:19 PM 39.3422 -74.8322 39° Northeast 412 474 34,600 -712 Descending Washington Center
Sat 05:08:19 PM 39.4333 -74.7397 38° Northeast 412 474 33,600 -992 Descending Washington Center
Sat 05:09:20 PM 39.5283 -74.6444 38° Northeast 418 481 32,600 -934 Descending Washington Center
Sat 05:10:21 PM 39.6214 -74.5464 39° Northeast 418 481 31,700 -1,008 Descending Washington Center
Sat 05:11:19 PM 39.7247 -74.4369 39° Northeast 424 488 30,600 -1,029 Descending Washington Center
Sat 05:12:41 PM 39.8456 -74.3156 38° Northeast 458 527 29,300 -1,133 Descending New York Center
Sat 05:13:42 PM 39.9406 -74.2119 40° Northeast 464 534 27,900 -1,462 Descending New York Center
Sat 05:14:40 PM 40.0414 -74.1058 39° Northeast 464 534 26,400 -1,513 Descending New York Center
Sat 05:15:41 PM 40.1444 -73.9994 38° Northeast 464 534 24,900 -706 Descending New York Center
Sat 05:16:39 PM 40.2411 -73.8925 40° Northeast 459 528 25,000 50 Climbing New York Center
Sat 05:17:41 PM 40.3525 -73.7803 38° Northeast 464 534 25,000  Level New York Center
Sat 05:18:39 PM 40.4508 -73.6783 38° Northeast 457 526 25,000 -923 Level New York Center
Sat 05:20:43 PM 40.6453 -73.4547 41° Northeast 457 526 22,200 -1,826 Descending Boston Center
Sat 05:21:43 PM 40.7461 -73.3578 36° Northeast 445 512 19,400 -1,600 Descending Boston Center
Sat 05:22:43 PM 40.8322 -73.2603 41° Northeast 431 496 19,000 -750 Descending Boston Center
Sat 05:23:43 PM 40.9228 -73.1542 42° Northeast 425 489 17,900 -900 Descending Boston Center
Sat 05:24:43 PM 41.0067 -73.0533 42° Northeast 420 483 17,200 -1,300 Descending Boston Center
Sat 05:25:43 PM 41.0925 -72.9578 40° Northeast 408 470 15,300 -1,900 Descending Boston Center
Sat 05:26:43 PM 41.1722 -72.8647 41° Northeast 397 457 13,400 -1,948 Descending Boston Center
Sat 05:27:00 PM 41.1908 -72.8428 42° Northeast 385 443 12,800 -2,000 Descending Boston Center
Sat 05:27:43 PM 41.2475 -72.7714 43° Northeast 382 440 11,400 -1,770 Descending Boston Center
Sat 05:28:01 PM 41.2642 -72.7494 45° Northeast 362 417 11,000 -400 Descending Boston Center
Sat 05:28:43 PM 41.3289 -72.7164 21° North 341 392 11,000 -545 Level Boston Center
Sat 05:29:51 PM 41.4353 -72.6947 North 354 407 10,000 -500 Descending Boston Center
Sat 05:30:43 PM 41.5144 -72.6811 North 336 387 10,000 -696 Level Boston Center
Sat 05:31:43 PM 41.5833 -72.6678 North 296 341 8,700 -1,569 Descending Boston Center
Sat 05:32:53 PM 41.6750 -72.6486 North 270 311 6,600 -1,600 Descending Boston Center
Sat 05:33:43 PM 41.7250 -72.6347 12° North 268 308 5,500 -1,345 Descending Boston Center
Sat 05:34:49 PM 41.8106 -72.5767 27° Northeast 278 320 4,000 -750 Descending Boston Center
Sat 05:35:43 PM 41.8628 -72.5406 27° Northeast 260 299 4,000  Level Boston Center
Sat 05:36:02 PM 41.8856 -72.5322 15° North 248 285 4,000 -100 Level Boston Center
Sat 05:36:43 PM 41.9336 -72.5433 350° North 230 265 3,900 -1,010 Descending Boston Center
Sat 05:37:43 PM 41.9897 -72.5686 341° North 220 253 2,300 -1,100 Descending Boston Center
Sat 05:38:43 PM 41.9939 -72.6189 276° West 153 176 1,700 -800 Descending Boston Center
Sat 05:39:43 PM 41.9708 -72.6522 227° Southwest 124 143 700 -700 Descending Boston Center
Sat 05:40:43 PM 41.9519 -72.6886 235° Southwest 129 148 300 -400 Descending Boston Center
Sat 05:42:00 PM 41.9392 -72.6834 163° South  Level Estimated

Login

Don't have an account? Register now (free) for customized features, flight alerts, and more!